sensor_id;sensor_type;location;lat;lon;timestamp;P1;durP1;ratioP1;P2;durP2;ratioP2
18822;SDS011;9540;51.550;7.980;2023-07-16T00:02:01;2.72;;;1.20;;
18822;SDS011;9540;51.550;7.980;2023-07-16T00:04:28;2.17;;;1.60;;
18822;SDS011;9540;51.550;7.980;2023-07-16T00:06:56;1.55;;;1.38;;
18822;SDS011;9540;51.550;7.980;2023-07-16T00:09:23;2.78;;;1.77;;
18822;SDS011;9540;51.550;7.980;2023-07-16T00:11:50;4.88;;;1.55;;
18822;SDS011;9540;51.550;7.980;2023-07-16T00:14:17;3.38;;;1.92;;
18822;SDS011;9540;51.550;7.980;2023-07-16T00:16:45;1.95;;;1.85;;
18822;SDS011;9540;51.550;7.980;2023-07-16T00:19:13;3.28;;;1.90;;
18822;SDS011;9540;51.550;7.980;2023-07-16T00:21:41;3.10;;;1.80;;
18822;SDS011;9540;51.550;7.980;2023-07-16T00:24:08;2.80;;;1.42;;
18822;SDS011;9540;51.550;7.980;2023-07-16T00:26:35;3.22;;;1.52;;
18822;SDS011;9540;51.550;7.980;2023-07-16T00:29:02;1.83;;;1.58;;
18822;SDS011;9540;51.550;7.980;2023-07-16T00:31:29;3.95;;;1.90;;
18822;SDS011;9540;51.550;7.980;2023-07-16T00:33:58;4.38;;;2.00;;
18822;SDS011;9540;51.550;7.980;2023-07-16T00:36:25;2.15;;;1.70;;
18822;SDS011;9540;51.550;7.980;2023-07-16T00:38:52;8.27;;;1.77;;
18822;SDS011;9540;51.550;7.980;2023-07-16T00:41:18;4.22;;;1.85;;
18822;SDS011;9540;51.550;7.980;2023-07-16T00:43:45;1.98;;;1.88;;
18822;SDS011;9540;51.550;7.980;2023-07-16T00:46:12;1.83;;;1.63;;
18822;SDS011;9540;51.550;7.980;2023-07-16T00:48:40;4.32;;;1.98;;
18822;SDS011;9540;51.550;7.980;2023-07-16T00:51:09;3.60;;;2.05;;
18822;SDS011;9540;51.550;7.980;2023-07-16T00:53:36;8.98;;;2.90;;
18822;SDS011;9540;51.550;7.980;2023-07-16T00:56:04;2.90;;;2.20;;
18822;SDS011;9540;51.550;7.980;2023-07-16T00:58:32;7.85;;;2.55;;
18822;SDS011;9540;51.550;7.980;2023-07-16T01:00:59;4.03;;;2.28;;
18822;SDS011;9540;51.550;7.980;2023-07-16T01:03:26;2.92;;;1.95;;
18822;SDS011;9540;51.550;7.980;2023-07-16T01:05:54;3.00;;;2.00;;
18822;SDS011;9540;51.550;7.980;2023-07-16T01:08:30;3.63;;;1.92;;
18822;SDS011;9540;51.550;7.980;2023-07-16T01:10:59;3.17;;;2.33;;
18822;SDS011;9540;51.550;7.980;2023-07-16T01:13:27;3.20;;;1.85;;
18822;SDS011;9540;51.550;7.980;2023-07-16T01:15:54;1.92;;;1.73;;
18822;SDS011;9540;51.550;7.980;2023-07-16T01:18:22;2.83;;;1.95;;
18822;SDS011;9540;51.550;7.980;2023-07-16T01:20:49;3.05;;;2.10;;
18822;SDS011;9540;51.550;7.980;2023-07-16T01:26:19;4.88;;;1.80;;
18822;SDS011;9540;51.550;7.980;2023-07-16T01:32:00;3.72;;;2.63;;
18822;SDS011;9540;51.550;7.980;2023-07-16T01:34:32;3.65;;;1.95;;
18822;SDS011;9540;51.550;7.980;2023-07-16T01:37:01;6.75;;;2.38;;
18822;SDS011;9540;51.550;7.980;2023-07-16T01:39:29;3.72;;;2.33;;
18822;SDS011;9540;51.550;7.980;2023-07-16T01:41:57;4.63;;;2.42;;
18822;SDS011;9540;51.550;7.980;2023-07-16T01:44:24;6.57;;;2.40;;
18822;SDS011;9540;51.550;7.980;2023-07-16T01:46:57;5.10;;;2.45;;
18822;SDS011;9540;51.550;7.980;2023-07-16T01:49:32;2.63;;;2.42;;
18822;SDS011;9540;51.550;7.980;2023-07-16T01:51:59;3.88;;;2.90;;
18822;SDS011;9540;51.550;7.980;2023-07-16T01:54:27;5.10;;;2.30;;
18822;SDS011;9540;51.550;7.980;2023-07-16T01:56:54;4.55;;;2.70;;
18822;SDS011;9540;51.550;7.980;2023-07-16T01:59:21;5.53;;;2.75;;
18822;SDS011;9540;51.550;7.980;2023-07-16T02:01:48;5.40;;;2.47;;
18822;SDS011;9540;51.550;7.980;2023-07-16T02:04:16;3.20;;;2.63;;
18822;SDS011;9540;51.550;7.980;2023-07-16T02:06:43;6.07;;;2.38;;
18822;SDS011;9540;51.550;7.980;2023-07-16T02:09:10;6.07;;;2.45;;
18822;SDS011;9540;51.550;7.980;2023-07-16T02:11:37;3.92;;;2.50;;
18822;SDS011;9540;51.550;7.980;2023-07-16T02:14:04;3.20;;;2.42;;
18822;SDS011;9540;51.550;7.980;2023-07-16T02:16:31;5.78;;;2.53;;
18822;SDS011;9540;51.550;7.980;2023-07-16T02:18:58;3.22;;;2.20;;
18822;SDS011;9540;51.550;7.980;2023-07-16T02:21:26;6.03;;;2.50;;
18822;SDS011;9540;51.550;7.980;2023-07-16T02:23:53;3.65;;;2.63;;
18822;SDS011;9540;51.550;7.980;2023-07-16T02:26:21;3.28;;;2.45;;
18822;SDS011;9540;51.550;7.980;2023-07-16T02:28:48;4.63;;;2.55;;
18822;SDS011;9540;51.550;7.980;2023-07-16T02:31:15;5.57;;;2.65;;
18822;SDS011;9540;51.550;7.980;2023-07-16T02:33:42;4.38;;;2.53;;
18822;SDS011;9540;51.550;7.980;2023-07-16T02:36:09;3.25;;;2.35;;
18822;SDS011;9540;51.550;7.980;2023-07-16T02:38:37;3.15;;;2.38;;
18822;SDS011;9540;51.550;7.980;2023-07-16T02:41:04;4.55;;;2.10;;
18822;SDS011;9540;51.550;7.980;2023-07-16T02:43:31;6.38;;;2.38;;
18822;SDS011;9540;51.550;7.980;2023-07-16T02:45:58;2.80;;;1.85;;
18822;SDS011;9540;51.550;7.980;2023-07-16T02:48:25;4.38;;;2.25;;
18822;SDS011;9540;51.550;7.980;2023-07-16T02:50:52;4.55;;;1.92;;
18822;SDS011;9540;51.550;7.980;2023-07-16T02:53:19;3.13;;;2.10;;
18822;SDS011;9540;51.550;7.980;2023-07-16T02:55:49;5.90;;;2.08;;
18822;SDS011;9540;51.550;7.980;2023-07-16T02:58:17;6.43;;;2.40;;
18822;SDS011;9540;51.550;7.980;2023-07-16T03:00:44;5.80;;;2.70;;
18822;SDS011;9540;51.550;7.980;2023-07-16T03:03:11;2.60;;;2.10;;
18822;SDS011;9540;51.550;7.980;2023-07-16T03:05:38;4.25;;;2.67;;
18822;SDS011;9540;51.550;7.980;2023-07-16T03:08:05;5.57;;;2.55;;
18822;SDS011;9540;51.550;7.980;2023-07-16T03:10:32;7.10;;;2.40;;
18822;SDS011;9540;51.550;7.980;2023-07-16T03:13:00;5.40;;;2.22;;
18822;SDS011;9540;51.550;7.980;2023-07-16T03:15:27;4.60;;;2.17;;
18822;SDS011;9540;51.550;7.980;2023-07-16T03:17:55;5.10;;;2.13;;
18822;SDS011;9540;51.550;7.980;2023-07-16T03:20:22;6.53;;;2.67;;
18822;SDS011;9540;51.550;7.980;2023-07-16T03:22:49;5.05;;;2.17;;
18822;SDS011;9540;51.550;7.980;2023-07-16T03:25:16;8.63;;;2.75;;
18822;SDS011;9540;51.550;7.980;2023-07-16T03:27:43;3.38;;;2.13;;
18822;SDS011;9540;51.550;7.980;2023-07-16T03:30:11;7.30;;;2.90;;
18822;SDS011;9540;51.550;7.980;2023-07-16T03:32:38;7.97;;;2.60;;
18822;SDS011;9540;51.550;7.980;2023-07-16T03:35:05;6.32;;;2.78;;
18822;SDS011;9540;51.550;7.980;2023-07-16T03:37:33;3.72;;;2.50;;
18822;SDS011;9540;51.550;7.980;2023-07-16T03:40:11;5.90;;;2.40;;
18822;SDS011;9540;51.550;7.980;2023-07-16T03:42:39;7.38;;;2.72;;
18822;SDS011;9540;51.550;7.980;2023-07-16T03:45:07;6.70;;;2.60;;
18822;SDS011;9540;51.550;7.980;2023-07-16T03:47:36;4.60;;;2.38;;
18822;SDS011;9540;51.550;7.980;2023-07-16T03:50:03;4.65;;;2.97;;
18822;SDS011;9540;51.550;7.980;2023-07-16T03:52:31;4.72;;;2.30;;
18822;SDS011;9540;51.550;7.980;2023-07-16T03:54:57;4.35;;;2.53;;
18822;SDS011;9540;51.550;7.980;2023-07-16T03:57:25;5.97;;;2.58;;
18822;SDS011;9540;51.550;7.980;2023-07-16T03:59:52;4.70;;;2.22;;
18822;SDS011;9540;51.550;7.980;2023-07-16T04:02:19;3.92;;;2.45;;
18822;SDS011;9540;51.550;7.980;2023-07-16T04:04:47;4.20;;;2.33;;
18822;SDS011;9540;51.550;7.980;2023-07-16T04:07:15;4.82;;;2.47;;
18822;SDS011;9540;51.550;7.980;2023-07-16T04:09:42;3.67;;;2.20;;
18822;SDS011;9540;51.550;7.980;2023-07-16T04:12:09;4.63;;;2.53;;
18822;SDS011;9540;51.550;7.980;2023-07-16T04:14:37;4.38;;;2.50;;
18822;SDS011;9540;51.550;7.980;2023-07-16T04:17:04;6.00;;;2.05;;
18822;SDS011;9540;51.550;7.980;2023-07-16T04:19:31;5.70;;;2.10;;
18822;SDS011;9540;51.550;7.980;2023-07-16T04:22:00;5.03;;;1.95;;
18822;SDS011;9540;51.550;7.980;2023-07-16T04:24:27;3.97;;;1.98;;
18822;SDS011;9540;51.550;7.980;2023-07-16T04:26:54;4.30;;;1.95;;
18822;SDS011;9540;51.550;7.980;2023-07-16T04:29:21;4.32;;;2.38;;
18822;SDS011;9540;51.550;7.980;2023-07-16T04:31:48;4.07;;;1.88;;
18822;SDS011;9540;51.550;7.980;2023-07-16T04:34:15;8.30;;;1.92;;
18822;SDS011;9540;51.550;7.980;2023-07-16T04:36:42;3.00;;;2.17;;
18822;SDS011;9540;51.550;7.980;2023-07-16T04:39:12;7.32;;;2.15;;
18822;SDS011;9540;51.550;7.980;2023-07-16T04:41:39;3.10;;;1.60;;
18822;SDS011;9540;51.550;7.980;2023-07-16T04:44:06;5.55;;;1.80;;
18822;SDS011;9540;51.550;7.980;2023-07-16T04:46:33;4.82;;;2.25;;
18822;SDS011;9540;51.550;7.980;2023-07-16T04:49:00;5.72;;;1.90;;
18822;SDS011;9540;51.550;7.980;2023-07-16T04:51:27;4.22;;;2.17;;
18822;SDS011;9540;51.550;7.980;2023-07-16T04:53:54;5.85;;;2.28;;
18822;SDS011;9540;51.550;7.980;2023-07-16T04:56:22;3.60;;;2.00;;
18822;SDS011;9540;51.550;7.980;2023-07-16T04:58:49;5.75;;;2.03;;
18822;SDS011;9540;51.550;7.980;2023-07-16T05:01:16;4.45;;;2.00;;
18822;SDS011;9540;51.550;7.980;2023-07-16T05:03:43;4.80;;;1.77;;
18822;SDS011;9540;51.550;7.980;2023-07-16T05:06:10;6.45;;;2.75;;
18822;SDS011;9540;51.550;7.980;2023-07-16T05:08:37;6.75;;;2.03;;
18822;SDS011;9540;51.550;7.980;2023-07-16T05:11:04;4.03;;;2.10;;
18822;SDS011;9540;51.550;7.980;2023-07-16T05:13:33;9.52;;;2.42;;
18822;SDS011;9540;51.550;7.980;2023-07-16T05:16:00;3.90;;;2.20;;
18822;SDS011;9540;51.550;7.980;2023-07-16T05:18:26;4.63;;;2.28;;
18822;SDS011;9540;51.550;7.980;2023-07-16T05:20:54;6.07;;;2.05;;
18822;SDS011;9540;51.550;7.980;2023-07-16T05:23:21;6.68;;;2.20;;
18822;SDS011;9540;51.550;7.980;2023-07-16T05:25:49;5.30;;;2.40;;
18822;SDS011;9540;51.550;7.980;2023-07-16T05:28:17;7.57;;;2.33;;
18822;SDS011;9540;51.550;7.980;2023-07-16T05:30:47;4.47;;;2.08;;
18822;SDS011;9540;51.550;7.980;2023-07-16T05:33:14;4.88;;;2.05;;
18822;SDS011;9540;51.550;7.980;2023-07-16T05:35:41;7.13;;;2.25;;
18822;SDS011;9540;51.550;7.980;2023-07-16T05:38:09;6.18;;;2.25;;
18822;SDS011;9540;51.550;7.980;2023-07-16T05:40:36;7.93;;;2.50;;
18822;SDS011;9540;51.550;7.980;2023-07-16T05:43:03;6.72;;;2.63;;
18822;SDS011;9540;51.550;7.980;2023-07-16T05:45:30;9.13;;;3.03;;
18822;SDS011;9540;51.550;7.980;2023-07-16T05:47:58;5.30;;;2.53;;
18822;SDS011;9540;51.550;7.980;2023-07-16T05:50:25;7.32;;;2.78;;
18822;SDS011;9540;51.550;7.980;2023-07-16T05:52:52;6.05;;;2.80;;
18822;SDS011;9540;51.550;7.980;2023-07-16T05:55:19;9.45;;;3.15;;
18822;SDS011;9540;51.550;7.980;2023-07-16T05:57:46;8.73;;;2.92;;
18822;SDS011;9540;51.550;7.980;2023-07-16T06:00:14;4.95;;;2.67;;
18822;SDS011;9540;51.550;7.980;2023-07-16T06:02:41;3.80;;;2.40;;
18822;SDS011;9540;51.550;7.980;2023-07-16T06:05:10;7.35;;;3.10;;
18822;SDS011;9540;51.550;7.980;2023-07-16T06:07:37;10.05;;;3.17;;
18822;SDS011;9540;51.550;7.980;2023-07-16T06:10:04;6.10;;;3.33;;
18822;SDS011;9540;51.550;7.980;2023-07-16T06:12:32;6.40;;;3.47;;
18822;SDS011;9540;51.550;7.980;2023-07-16T06:14:59;12.30;;;2.78;;
18822;SDS011;9540;51.550;7.980;2023-07-16T06:17:26;9.00;;;2.50;;
18822;SDS011;9540;51.550;7.980;2023-07-16T06:19:54;10.40;;;2.85;;
18822;SDS011;9540;51.550;7.980;2023-07-16T06:22:24;7.55;;;2.97;;
18822;SDS011;9540;51.550;7.980;2023-07-16T06:24:51;4.88;;;2.30;;
18822;SDS011;9540;51.550;7.980;2023-07-16T06:27:18;8.88;;;2.78;;
18822;SDS011;9540;51.550;7.980;2023-07-16T06:29:45;7.65;;;2.67;;
18822;SDS011;9540;51.550;7.980;2023-07-16T06:32:12;7.95;;;2.83;;
18822;SDS011;9540;51.550;7.980;2023-07-16T06:34:40;9.05;;;3.33;;
18822;SDS011;9540;51.550;7.980;2023-07-16T06:37:07;5.32;;;2.38;;
18822;SDS011;9540;51.550;7.980;2023-07-16T06:39:35;7.35;;;2.55;;
18822;SDS011;9540;51.550;7.980;2023-07-16T06:42:02;6.32;;;2.80;;
18822;SDS011;9540;51.550;7.980;2023-07-16T06:44:30;9.95;;;3.17;;
18822;SDS011;9540;51.550;7.980;2023-07-16T06:46:57;9.73;;;2.97;;
18822;SDS011;9540;51.550;7.980;2023-07-16T06:49:24;9.05;;;2.80;;
18822;SDS011;9540;51.550;7.980;2023-07-16T06:51:51;7.75;;;2.80;;
18822;SDS011;9540;51.550;7.980;2023-07-16T06:54:18;8.02;;;2.88;;
18822;SDS011;9540;51.550;7.980;2023-07-16T06:56:46;7.80;;;2.80;;
18822;SDS011;9540;51.550;7.980;2023-07-16T06:59:13;6.80;;;2.90;;
18822;SDS011;9540;51.550;7.980;2023-07-16T07:01:40;7.00;;;3.60;;
18822;SDS011;9540;51.550;7.980;2023-07-16T07:04:07;12.57;;;3.47;;
18822;SDS011;9540;51.550;7.980;2023-07-16T07:06:34;5.97;;;3.50;;
18822;SDS011;9540;51.550;7.980;2023-07-16T07:09:01;11.00;;;3.55;;
18822;SDS011;9540;51.550;7.980;2023-07-16T07:11:28;12.43;;;3.90;;
18822;SDS011;9540;51.550;7.980;2023-07-16T07:13:57;10.60;;;4.10;;
18822;SDS011;9540;51.550;7.980;2023-07-16T07:16:24;10.07;;;3.60;;
18822;SDS011;9540;51.550;7.980;2023-07-16T07:18:51;11.35;;;4.28;;
18822;SDS011;9540;51.550;7.980;2023-07-16T07:21:18;8.80;;;3.78;;
18822;SDS011;9540;51.550;7.980;2023-07-16T07:23:45;6.07;;;3.67;;
18822;SDS011;9540;51.550;7.980;2023-07-16T07:26:12;12.23;;;4.03;;
18822;SDS011;9540;51.550;7.980;2023-07-16T07:28:42;8.23;;;3.50;;
18822;SDS011;9540;51.550;7.980;2023-07-16T07:31:10;4.20;;;3.28;;
18822;SDS011;9540;51.550;7.980;2023-07-16T07:33:37;10.75;;;4.22;;
18822;SDS011;9540;51.550;7.980;2023-07-16T07:36:04;7.82;;;3.55;;
18822;SDS011;9540;51.550;7.980;2023-07-16T07:38:31;9.55;;;4.68;;
18822;SDS011;9540;51.550;7.980;2023-07-16T07:40:58;7.65;;;3.88;;
18822;SDS011;9540;51.550;7.980;2023-07-16T07:43:25;11.27;;;3.65;;
18822;SDS011;9540;51.550;7.980;2023-07-16T07:45:52;7.97;;;3.67;;
18822;SDS011;9540;51.550;7.980;2023-07-16T07:48:21;5.30;;;3.50;;
18822;SDS011;9540;51.550;7.980;2023-07-16T07:50:48;10.93;;;3.47;;
18822;SDS011;9540;51.550;7.980;2023-07-16T07:53:15;8.27;;;3.90;;
18822;SDS011;9540;51.550;7.980;2023-07-16T07:55:44;6.18;;;3.30;;
18822;SDS011;9540;51.550;7.980;2023-07-16T07:58:11;8.20;;;3.78;;
18822;SDS011;9540;51.550;7.980;2023-07-16T08:00:38;7.40;;;3.53;;
18822;SDS011;9540;51.550;7.980;2023-07-16T08:03:06;4.47;;;3.28;;
18822;SDS011;9540;51.550;7.980;2023-07-16T08:05:34;10.38;;;3.88;;
18822;SDS011;9540;51.550;7.980;2023-07-16T08:08:02;4.20;;;3.22;;
18822;SDS011;9540;51.550;7.980;2023-07-16T08:10:29;5.70;;;3.55;;
18822;SDS011;9540;51.550;7.980;2023-07-16T08:12:56;7.55;;;3.92;;
18822;SDS011;9540;51.550;7.980;2023-07-16T08:15:23;7.65;;;3.42;;
18822;SDS011;9540;51.550;7.980;2023-07-16T08:17:50;6.60;;;3.92;;
18822;SDS011;9540;51.550;7.980;2023-07-16T08:20:17;8.48;;;3.95;;
18822;SDS011;9540;51.550;7.980;2023-07-16T08:22:46;8.05;;;4.15;;
18822;SDS011;9540;51.550;7.980;2023-07-16T08:25:13;8.20;;;3.85;;
18822;SDS011;9540;51.550;7.980;2023-07-16T08:27:40;4.18;;;3.38;;
18822;SDS011;9540;51.550;7.980;2023-07-16T08:30:07;10.25;;;3.92;;
18822;SDS011;9540;51.550;7.980;2023-07-16T08:32:35;6.68;;;3.80;;
18822;SDS011;9540;51.550;7.980;2023-07-16T08:35:02;9.25;;;3.53;;
18822;SDS011;9540;51.550;7.980;2023-07-16T08:37:29;8.73;;;3.50;;
18822;SDS011;9540;51.550;7.980;2023-07-16T08:39:58;6.20;;;3.35;;
18822;SDS011;9540;51.550;7.980;2023-07-16T08:42:25;6.03;;;3.50;;
18822;SDS011;9540;51.550;7.980;2023-07-16T08:44:52;7.10;;;3.92;;
18822;SDS011;9540;51.550;7.980;2023-07-16T08:47:20;4.80;;;3.60;;
18822;SDS011;9540;51.550;7.980;2023-07-16T08:49:50;7.40;;;3.25;;
18822;SDS011;9540;51.550;7.980;2023-07-16T08:52:21;10.88;;;4.22;;
18822;SDS011;9540;51.550;7.980;2023-07-16T08:54:48;5.95;;;3.33;;
18822;SDS011;9540;51.550;7.980;2023-07-16T08:57:16;6.70;;;3.40;;
18822;SDS011;9540;51.550;7.980;2023-07-16T08:59:45;7.10;;;3.10;;
18822;SDS011;9540;51.550;7.980;2023-07-16T09:02:15;8.75;;;3.60;;
18822;SDS011;9540;51.550;7.980;2023-07-16T09:04:43;8.10;;;3.72;;
18822;SDS011;9540;51.550;7.980;2023-07-16T09:07:10;6.78;;;3.17;;
18822;SDS011;9540;51.550;7.980;2023-07-16T09:09:37;6.97;;;3.45;;
18822;SDS011;9540;51.550;7.980;2023-07-16T09:12:05;7.13;;;3.60;;
18822;SDS011;9540;51.550;7.980;2023-07-16T09:14:34;5.63;;;3.65;;
18822;SDS011;9540;51.550;7.980;2023-07-16T09:17:01;7.50;;;3.28;;
18822;SDS011;9540;51.550;7.980;2023-07-16T09:19:31;6.88;;;3.10;;
18822;SDS011;9540;51.550;7.980;2023-07-16T09:21:58;4.45;;;2.95;;
18822;SDS011;9540;51.550;7.980;2023-07-16T09:24:26;4.03;;;3.20;;
18822;SDS011;9540;51.550;7.980;2023-07-16T09:26:53;7.32;;;2.90;;
18822;SDS011;9540;51.550;7.980;2023-07-16T09:29:22;6.38;;;3.28;;
18822;SDS011;9540;51.550;7.980;2023-07-16T09:31:54;8.52;;;3.38;;
18822;SDS011;9540;51.550;7.980;2023-07-16T09:34:21;8.02;;;3.65;;
18822;SDS011;9540;51.550;7.980;2023-07-16T09:36:48;5.93;;;3.13;;
18822;SDS011;9540;51.550;7.980;2023-07-16T09:39:16;7.13;;;3.65;;
18822;SDS011;9540;51.550;7.980;2023-07-16T09:41:44;5.30;;;2.75;;
18822;SDS011;9540;51.550;7.980;2023-07-16T09:44:13;8.07;;;3.40;;
18822;SDS011;9540;51.550;7.980;2023-07-16T09:46:40;3.80;;;2.92;;
18822;SDS011;9540;51.550;7.980;2023-07-16T09:49:08;7.10;;;3.30;;
18822;SDS011;9540;51.550;7.980;2023-07-16T09:51:37;5.63;;;3.42;;
18822;SDS011;9540;51.550;7.980;2023-07-16T09:54:05;7.32;;;3.80;;
18822;SDS011;9540;51.550;7.980;2023-07-16T09:56:33;6.78;;;3.60;;
18822;SDS011;9540;51.550;7.980;2023-07-16T09:59:05;8.70;;;4.03;;
18822;SDS011;9540;51.550;7.980;2023-07-16T10:01:36;7.43;;;2.78;;
18822;SDS011;9540;51.550;7.980;2023-07-16T10:04:13;10.88;;;3.78;;
18822;SDS011;9540;51.550;7.980;2023-07-16T10:06:53;7.05;;;3.85;;
18822;SDS011;9540;51.550;7.980;2023-07-16T10:09:31;5.25;;;3.30;;
18822;SDS011;9540;51.550;7.980;2023-07-16T10:12:07;4.15;;;3.47;;
18822;SDS011;9540;51.550;7.980;2023-07-16T10:14:41;5.22;;;3.38;;
18822;SDS011;9540;51.550;7.980;2023-07-16T10:17:14;4.85;;;3.00;;
18822;SDS011;9540;51.550;7.980;2023-07-16T10:19:50;6.60;;;3.75;;
18822;SDS011;9540;51.550;7.980;2023-07-16T10:22:30;8.43;;;4.22;;
18822;SDS011;9540;51.550;7.980;2023-07-16T10:24:58;4.45;;;3.10;;
18822;SDS011;9540;51.550;7.980;2023-07-16T10:27:29;6.93;;;4.00;;
18822;SDS011;9540;51.550;7.980;2023-07-16T10:29:57;8.77;;;3.80;;
18822;SDS011;9540;51.550;7.980;2023-07-16T10:32:26;7.10;;;3.95;;
18822;SDS011;9540;51.550;7.980;2023-07-16T10:34:55;7.25;;;3.47;;
18822;SDS011;9540;51.550;7.980;2023-07-16T10:37:23;8.40;;;3.53;;
18822;SDS011;9540;51.550;7.980;2023-07-16T10:39:51;5.72;;;3.35;;
18822;SDS011;9540;51.550;7.980;2023-07-16T10:42:19;7.13;;;4.10;;
18822;SDS011;9540;51.550;7.980;2023-07-16T10:44:48;5.82;;;3.38;;
18822;SDS011;9540;51.550;7.980;2023-07-16T10:47:20;6.18;;;3.85;;
18822;SDS011;9540;51.550;7.980;2023-07-16T10:49:48;6.30;;;3.38;;
18822;SDS011;9540;51.550;7.980;2023-07-16T10:52:19;7.55;;;3.85;;
18822;SDS011;9540;51.550;7.980;2023-07-16T10:54:47;13.13;;;3.70;;
18822;SDS011;9540;51.550;7.980;2023-07-16T10:57:15;6.97;;;3.85;;
18822;SDS011;9540;51.550;7.980;2023-07-16T10:59:44;6.13;;;3.92;;
18822;SDS011;9540;51.550;7.980;2023-07-16T11:02:13;5.40;;;3.83;;
18822;SDS011;9540;51.550;7.980;2023-07-16T11:04:41;5.25;;;3.78;;
18822;SDS011;9540;51.550;7.980;2023-07-16T11:07:09;7.25;;;3.60;;
18822;SDS011;9540;51.550;7.980;2023-07-16T11:09:42;7.65;;;3.97;;
18822;SDS011;9540;51.550;7.980;2023-07-16T11:12:11;5.63;;;3.80;;
18822;SDS011;9540;51.550;7.980;2023-07-16T11:14:39;7.05;;;4.25;;
18822;SDS011;9540;51.550;7.980;2023-07-16T11:17:09;6.30;;;3.83;;
18822;SDS011;9540;51.550;7.980;2023-07-16T11:19:36;8.35;;;4.35;;
18822;SDS011;9540;51.550;7.980;2023-07-16T11:22:04;5.65;;;3.42;;
18822;SDS011;9540;51.550;7.980;2023-07-16T11:24:36;7.40;;;4.07;;
18822;SDS011;9540;51.550;7.980;2023-07-16T11:27:06;7.97;;;3.45;;
18822;SDS011;9540;51.550;7.980;2023-07-16T11:29:39;5.63;;;3.95;;
18822;SDS011;9540;51.550;7.980;2023-07-16T11:32:10;8.32;;;3.83;;
18822;SDS011;9540;51.550;7.980;2023-07-16T11:34:37;10.63;;;3.63;;
18822;SDS011;9540;51.550;7.980;2023-07-16T11:37:17;13.02;;;3.65;;
18822;SDS011;9540;51.550;7.980;2023-07-16T11:39:46;5.05;;;3.42;;
18822;SDS011;9540;51.550;7.980;2023-07-16T11:42:14;6.10;;;3.90;;
18822;SDS011;9540;51.550;7.980;2023-07-16T11:44:48;5.70;;;3.90;;
18822;SDS011;9540;51.550;7.980;2023-07-16T11:47:15;5.53;;;3.28;;
18822;SDS011;9540;51.550;7.980;2023-07-16T11:49:43;5.13;;;3.35;;
18822;SDS011;9540;51.550;7.980;2023-07-16T11:52:10;5.90;;;3.15;;
18822;SDS011;9540;51.550;7.980;2023-07-16T11:54:37;7.35;;;3.08;;
18822;SDS011;9540;51.550;7.980;2023-07-16T11:57:04;5.63;;;2.97;;
18822;SDS011;9540;51.550;7.980;2023-07-16T11:59:32;8.48;;;3.00;;
18822;SDS011;9540;51.550;7.980;2023-07-16T12:01:59;7.40;;;2.88;;
18822;SDS011;9540;51.550;7.980;2023-07-16T12:04:27;3.92;;;2.58;;
18822;SDS011;9540;51.550;7.980;2023-07-16T12:06:57;7.03;;;3.00;;
18822;SDS011;9540;51.550;7.980;2023-07-16T12:09:31;5.18;;;2.63;;
18822;SDS011;9540;51.550;7.980;2023-07-16T12:11:59;4.43;;;2.63;;
18822;SDS011;9540;51.550;7.980;2023-07-16T12:14:31;4.43;;;2.53;;
18822;SDS011;9540;51.550;7.980;2023-07-16T12:17:06;4.88;;;2.28;;
18822;SDS011;9540;51.550;7.980;2023-07-16T12:19:33;7.28;;;2.50;;
18822;SDS011;9540;51.550;7.980;2023-07-16T12:22:06;4.07;;;2.70;;
18822;SDS011;9540;51.550;7.980;2023-07-16T12:24:34;4.05;;;2.30;;
18822;SDS011;9540;51.550;7.980;2023-07-16T12:27:09;4.30;;;2.60;;
18822;SDS011;9540;51.550;7.980;2023-07-16T12:29:37;4.68;;;2.20;;
18822;SDS011;9540;51.550;7.980;2023-07-16T12:32:07;2.53;;;2.33;;
18822;SDS011;9540;51.550;7.980;2023-07-16T12:34:35;5.22;;;2.72;;
18822;SDS011;9540;51.550;7.980;2023-07-16T12:37:07;3.72;;;2.55;;
18822;SDS011;9540;51.550;7.980;2023-07-16T12:39:36;5.63;;;2.28;;
18822;SDS011;9540;51.550;7.980;2023-07-16T12:42:07;6.05;;;2.90;;
18822;SDS011;9540;51.550;7.980;2023-07-16T12:44:39;3.72;;;2.40;;
18822;SDS011;9540;51.550;7.980;2023-07-16T12:47:09;3.97;;;2.90;;
18822;SDS011;9540;51.550;7.980;2023-07-16T12:49:37;3.17;;;2.35;;
18822;SDS011;9540;51.550;7.980;2023-07-16T12:52:09;6.35;;;3.03;;
18822;SDS011;9540;51.550;7.980;2023-07-16T12:54:37;4.25;;;2.97;;
18822;SDS011;9540;51.550;7.980;2023-07-16T12:57:13;4.50;;;3.10;;
18822;SDS011;9540;51.550;7.980;2023-07-16T12:59:43;5.45;;;3.05;;
18822;SDS011;9540;51.550;7.980;2023-07-16T13:02:11;3.38;;;2.45;;
18822;SDS011;9540;51.550;7.980;2023-07-16T13:04:41;4.03;;;3.10;;
18822;SDS011;9540;51.550;7.980;2023-07-16T13:07:23;4.25;;;3.22;;
18822;SDS011;9540;51.550;7.980;2023-07-16T13:10:04;5.43;;;2.78;;
18822;SDS011;9540;51.550;7.980;2023-07-16T13:12:35;7.40;;;3.00;;
18822;SDS011;9540;51.550;7.980;2023-07-16T13:15:07;7.22;;;3.42;;
18822;SDS011;9540;51.550;7.980;2023-07-16T13:17:40;5.47;;;2.40;;
18822;SDS011;9540;51.550;7.980;2023-07-16T13:20:08;7.80;;;3.17;;
18822;SDS011;9540;51.550;7.980;2023-07-16T13:22:45;5.03;;;3.17;;
18822;SDS011;9540;51.550;7.980;2023-07-16T13:25:16;4.45;;;2.72;;
18822;SDS011;9540;51.550;7.980;2023-07-16T13:27:57;3.80;;;2.67;;
18822;SDS011;9540;51.550;7.980;2023-07-16T13:30:32;6.13;;;2.70;;
18822;SDS011;9540;51.550;7.980;2023-07-16T13:33:01;3.13;;;2.72;;
18822;SDS011;9540;51.550;7.980;2023-07-16T13:35:30;6.05;;;2.85;;
18822;SDS011;9540;51.550;7.980;2023-07-16T13:37:59;6.85;;;3.00;;
18822;SDS011;9540;51.550;7.980;2023-07-16T13:40:30;5.70;;;2.95;;
18822;SDS011;9540;51.550;7.980;2023-07-16T13:42:58;5.47;;;2.63;;
18822;SDS011;9540;51.550;7.980;2023-07-16T13:45:33;8.38;;;3.67;;
18822;SDS011;9540;51.550;7.980;2023-07-16T13:48:01;4.75;;;2.60;;
18822;SDS011;9540;51.550;7.980;2023-07-16T13:50:28;7.10;;;2.83;;
18822;SDS011;9540;51.550;7.980;2023-07-16T13:53:00;5.78;;;3.10;;
18822;SDS011;9540;51.550;7.980;2023-07-16T13:55:31;4.82;;;2.45;;
18822;SDS011;9540;51.550;7.980;2023-07-16T13:58:04;6.43;;;2.90;;
18822;SDS011;9540;51.550;7.980;2023-07-16T14:00:35;8.35;;;3.28;;
18822;SDS011;9540;51.550;7.980;2023-07-16T14:03:02;6.55;;;2.90;;
18822;SDS011;9540;51.550;7.980;2023-07-16T14:05:30;5.72;;;2.90;;
18822;SDS011;9540;51.550;7.980;2023-07-16T14:08:05;7.88;;;2.90;;
18822;SDS011;9540;51.550;7.980;2023-07-16T14:10:32;5.00;;;2.85;;
18822;SDS011;9540;51.550;7.980;2023-07-16T14:13:02;6.53;;;3.22;;
18822;SDS011;9540;51.550;7.980;2023-07-16T14:15:29;3.35;;;2.90;;
18822;SDS011;9540;51.550;7.980;2023-07-16T14:18:01;6.07;;;2.88;;
18822;SDS011;9540;51.550;7.980;2023-07-16T14:20:28;5.43;;;2.90;;
18822;SDS011;9540;51.550;7.980;2023-07-16T14:22:59;6.10;;;3.03;;
18822;SDS011;9540;51.550;7.980;2023-07-16T14:25:27;6.60;;;2.70;;
18822;SDS011;9540;51.550;7.980;2023-07-16T14:27:54;6.18;;;3.20;;
18822;SDS011;9540;51.550;7.980;2023-07-16T14:30:20;6.97;;;2.90;;
18822;SDS011;9540;51.550;7.980;2023-07-16T14:32:47;3.40;;;3.10;;
18822;SDS011;9540;51.550;7.980;2023-07-16T14:35:16;4.57;;;3.13;;
18822;SDS011;9540;51.550;7.980;2023-07-16T14:37:43;12.18;;;2.95;;
18822;SDS011;9540;51.550;7.980;2023-07-16T14:40:11;5.10;;;2.97;;
18822;SDS011;9540;51.550;7.980;2023-07-16T14:42:38;5.97;;;2.88;;
18822;SDS011;9540;51.550;7.980;2023-07-16T14:45:06;6.53;;;3.03;;
18822;SDS011;9540;51.550;7.980;2023-07-16T14:47:34;6.40;;;3.13;;
18822;SDS011;9540;51.550;7.980;2023-07-16T14:50:01;5.25;;;3.35;;
18822;SDS011;9540;51.550;7.980;2023-07-16T14:52:29;4.95;;;2.83;;
18822;SDS011;9540;51.550;7.980;2023-07-16T14:54:56;4.35;;;2.97;;
18822;SDS011;9540;51.550;7.980;2023-07-16T14:57:23;5.72;;;3.17;;
18822;SDS011;9540;51.550;7.980;2023-07-16T14:59:51;3.80;;;3.20;;
18822;SDS011;9540;51.550;7.980;2023-07-16T15:02:20;5.55;;;3.22;;
18822;SDS011;9540;51.550;7.980;2023-07-16T15:04:47;4.95;;;3.47;;
18822;SDS011;9540;51.550;7.980;2023-07-16T15:07:14;6.28;;;3.53;;
18822;SDS011;9540;51.550;7.980;2023-07-16T15:09:42;5.40;;;3.38;;
18822;SDS011;9540;51.550;7.980;2023-07-16T15:12:09;7.88;;;2.92;;
18822;SDS011;9540;51.550;7.980;2023-07-16T15:14:36;7.55;;;3.10;;